sensor_id;sensor_type;location;lat;lon;timestamp;pressure;altitude;pressure_sealevel;temperature;humidity
7337;BME280;54510;42.016;23.098;2022-10-31T00:00:49;-21624.72;;;17.88;48.05
7337;BME280;54510;42.016;23.098;2022-10-31T00:03:16;-21634.06;;;18.22;47.10
7337;BME280;54510;42.016;23.098;2022-10-31T00:05:43;-21619.34;;;17.68;48.00
7337;BME280;54510;42.016;23.098;2022-10-31T00:08:09;-21618.94;;;17.66;48.33
7337;BME280;54510;42.016;23.098;2022-10-31T00:10:37;-21617.69;;;17.62;48.30
7337;BME280;54510;42.016;23.098;2022-10-31T00:13:03;-21611.38;;;17.38;48.17
7337;BME280;54510;42.016;23.098;2022-10-31T00:15:28;-21620.31;;;17.71;48.15
7337;BME280;54510;42.016;23.098;2022-10-31T00:17:53;-21631.19;;;18.11;47.10
7337;BME280;54510;42.016;23.098;2022-10-31T00:20:19;-21637.09;;;18.33;46.45
7337;BME280;54510;42.016;23.098;2022-10-31T00:22:44;-21634.88;;;18.25;46.51
7337;BME280;54510;42.016;23.098;2022-10-31T00:25:09;-21632.81;;;18.17;46.86
7337;BME280;54510;42.016;23.098;2022-10-31T00:27:35;-21628.00;;;18.00;46.86
7337;BME280;54510;42.016;23.098;2022-10-31T00:30:00;-21636.81;;;18.32;46.40
7337;BME280;54510;42.016;23.098;2022-10-31T00:32:28;-21639.16;;;18.41;46.21
7337;BME280;54510;42.016;23.098;2022-10-31T00:34:54;-21633.66;;;18.21;47.12
7337;BME280;54510;42.016;23.098;2022-10-31T00:37:20;-21630.63;;;18.09;47.33
7337;BME280;54510;42.016;23.098;2022-10-31T00:39:45;-21618.38;;;17.64;47.89
7337;BME280;54510;42.016;23.098;2022-10-31T00:42:10;-21626.22;;;17.93;47.87
7337;BME280;54510;42.016;23.098;2022-10-31T00:44:36;-21613.16;;;17.45;48.59
7337;BME280;54510;42.016;23.098;2022-10-31T00:47:01;-21621.81;;;17.77;48.01
7337;BME280;54510;42.016;23.098;2022-10-31T00:49:26;-21635.16;;;18.26;47.11
7337;BME280;54510;42.016;23.098;2022-10-31T00:51:52;-21638.19;;;18.37;46.60
7337;BME280;54510;42.016;23.098;2022-10-31T00:54:17;-21627.88;;;17.99;47.42
7337;BME280;54510;42.016;23.098;2022-10-31T00:56:43;-21634.47;;;18.24;47.11
7337;BME280;54510;42.016;23.098;2022-10-31T00:59:08;-21636.69;;;18.32;46.64
7337;BME280;54510;42.016;23.098;2022-10-31T01:01:33;-21635.84;;;18.29;46.66
7337;BME280;54510;42.016;23.098;2022-10-31T01:03:59;-21615.91;;;17.55;48.04
7337;BME280;54510;42.016;23.098;2022-10-31T01:06:24;-21621.13;;;17.74;48.00
7337;BME280;54510;42.016;23.098;2022-10-31T01:08:50;-21624.03;;;17.85;47.56
7337;BME280;54510;42.016;23.098;2022-10-31T01:11:18;-21629.94;;;18.07;47.27
7337;BME280;54510;42.016;23.098;2022-10-31T01:13:45;-21632.97;;;18.18;46.51
7337;BME280;54510;42.016;23.098;2022-10-31T01:16:14;-21636.69;;;18.32;46.50
7337;BME280;54510;42.016;23.098;2022-10-31T01:18:40;-21634.06;;;18.22;46.79
7337;BME280;54510;42.016;23.098;2022-10-31T01:21:08;-21626.09;;;17.93;46.73
7337;BME280;54510;42.016;23.098;2022-10-31T01:23:34;-21624.44;;;17.87;47.69
7337;BME280;54510;42.016;23.098;2022-10-31T01:28:30;-21610.25;;;17.34;48.73
7337;BME280;54510;42.016;23.098;2022-10-31T01:31:00;-21612.06;;;17.41;48.87
7337;BME280;54510;42.016;23.098;2022-10-31T01:33:25;-21610.13;;;17.34;49.18
7337;BME280;54510;42.016;23.098;2022-10-31T01:35:50;-21612.31;;;17.42;48.98
7337;BME280;54510;42.016;23.098;2022-10-31T01:38:16;-21617.97;;;17.63;48.42
7337;BME280;54510;42.016;23.098;2022-10-31T01:40:41;-21609.44;;;17.31;49.09
7337;BME280;54510;42.016;23.098;2022-10-31T01:43:12;-21604.22;;;17.12;49.36
7337;BME280;54510;42.016;23.098;2022-10-31T01:45:38;-21601.88;;;17.04;50.29
7337;BME280;54510;42.016;23.098;2022-10-31T01:48:03;-21600.91;;;17.00;50.42
7337;BME280;54510;42.016;23.098;2022-10-31T01:50:35;-21607.22;;;17.23;49.72
7337;BME280;54510;42.016;23.098;2022-10-31T01:53:02;-21612.75;;;17.44;49.40
7337;BME280;54510;42.016;23.098;2022-10-31T01:55:34;-21617.56;;;17.61;49.06
7337;BME280;54510;42.016;23.098;2022-10-31T01:58:13;-21616.59;;;17.58;48.91
7337;BME280;54510;42.016;23.098;2022-10-31T02:00:39;-21613.56;;;17.47;49.27
7337;BME280;54510;42.016;23.098;2022-10-31T02:03:06;-21616.47;;;17.57;48.72
7337;BME280;54510;42.016;23.098;2022-10-31T02:05:32;-21620.88;;;17.73;48.50
7337;BME280;54510;42.016;23.098;2022-10-31T02:08:05;-21621.56;;;17.76;48.71
7337;BME280;54510;42.016;23.098;2022-10-31T02:10:33;-21611.91;;;17.41;49.52
7337;BME280;54510;42.016;23.098;2022-10-31T02:13:02;-21609.84;;;17.33;49.76
7337;BME280;54510;42.016;23.098;2022-10-31T02:15:29;-21612.88;;;17.44;49.64
7337;BME280;54510;42.016;23.098;2022-10-31T02:17:55;-21628.00;;;18.00;48.30
7337;BME280;54510;42.016;23.098;2022-10-31T02:20:23;-21627.75;;;17.99;48.05
7337;BME280;54510;42.016;23.098;2022-10-31T02:31:01;-21629.25;;;18.04;47.69
7337;BME280;54510;42.016;23.098;2022-10-31T02:33:45;-21631.44;;;18.12;47.53
7337;BME280;54510;42.016;23.098;2022-10-31T02:39:02;-21620.59;;;17.72;48.31
7337;BME280;54510;42.016;23.098;2022-10-31T02:41:42;-21622.66;;;17.80;48.49
7337;BME280;54510;42.016;23.098;2022-10-31T02:44:20;-21603.94;;;17.11;49.49
7337;BME280;54510;42.016;23.098;2022-10-31T02:46:50;-21609.84;;;17.33;49.40
7337;BME280;54510;42.016;23.098;2022-10-31T02:51:52;-21621.13;;;17.74;48.44
7337;BME280;54510;42.016;23.098;2022-10-31T02:54:21;-21614.66;;;17.51;49.12
7337;BME280;54510;42.016;23.098;2022-10-31T02:56:48;-21621.97;;;17.77;48.32
7337;BME280;54510;42.016;23.098;2022-10-31T02:59:14;-21624.44;;;17.87;48.04
7337;BME280;54510;42.016;23.098;2022-10-31T03:19:06;-21621.13;;;17.74;48.52
7337;BME280;54510;42.016;23.098;2022-10-31T03:22:00;-21616.72;;;17.58;48.75
7337;BME280;54510;42.016;23.098;2022-10-31T03:24:32;-21617.56;;;17.61;48.74
7337;BME280;54510;42.016;23.098;2022-10-31T03:27:00;-21617.97;;;17.63;48.23
7337;BME280;54510;42.016;23.098;2022-10-31T03:29:30;-21616.47;;;17.57;48.54
7337;BME280;54510;42.016;23.098;2022-10-31T03:32:02;-21616.19;;;17.56;48.49
7337;BME280;54510;42.016;23.098;2022-10-31T03:34:30;-21613.28;;;17.46;49.23
7337;BME280;54510;42.016;23.098;2022-10-31T03:36:59;-21622.25;;;17.79;48.47
7337;BME280;54510;42.016;23.098;2022-10-31T03:39:27;-21616.88;;;17.59;49.01
7337;BME280;54510;42.016;23.098;2022-10-31T03:42:06;-21619.50;;;17.68;48.70
7337;BME280;54510;42.016;23.098;2022-10-31T03:44:33;-21621.13;;;17.74;48.60
7337;BME280;54510;42.016;23.098;2022-10-31T03:47:01;-21610.13;;;17.34;49.46
7337;BME280;54510;42.016;23.098;2022-10-31T03:49:28;-21613.00;;;17.45;49.32
7337;BME280;54510;42.016;23.098;2022-10-31T03:52:19;-21617.69;;;17.62;49.08
7337;BME280;54510;42.016;23.098;2022-10-31T03:54:53;-21617.97;;;17.63;48.97
7337;BME280;54510;42.016;23.098;2022-10-31T03:57:27;-21616.31;;;17.57;49.22
7337;BME280;54510;42.016;23.098;2022-10-31T04:02:32;-21619.75;;;17.69;48.70
7337;BME280;54510;42.016;23.098;2022-10-31T04:05:00;-21613.44;;;17.46;49.09
7337;BME280;54510;42.016;23.098;2022-10-31T04:07:29;-21619.91;;;17.70;48.98
7337;BME280;54510;42.016;23.098;2022-10-31T04:09:57;-21616.59;;;17.58;49.07
7337;BME280;54510;42.016;23.098;2022-10-31T04:12:24;-21618.81;;;17.66;48.78
7337;BME280;54510;42.016;23.098;2022-10-31T04:14:52;-21618.53;;;17.65;48.95
7337;BME280;54510;42.016;23.098;2022-10-31T04:17:21;-21621.41;;;17.75;48.63
7337;BME280;54510;42.016;23.098;2022-10-31T04:19:47;-21619.63;;;17.69;48.62
7337;BME280;54510;42.016;23.098;2022-10-31T04:22:13;-21621.28;;;17.75;48.47
7337;BME280;54510;42.016;23.098;2022-10-31T04:24:39;-21618.66;;;17.65;48.95
7337;BME280;54510;42.016;23.098;2022-10-31T04:27:06;-21618.53;;;17.65;48.93
7337;BME280;54510;42.016;23.098;2022-10-31T04:29:31;-21606.28;;;17.20;50.38
7337;BME280;54510;42.016;23.098;2022-10-31T04:31:57;-21615.09;;;17.52;49.36
7337;BME280;54510;42.016;23.098;2022-10-31T04:34:22;-21613.16;;;17.45;49.22
7337;BME280;54510;42.016;23.098;2022-10-31T04:36:48;-21615.63;;;17.54;48.99
7337;BME280;54510;42.016;23.098;2022-10-31T04:39:13;-21612.19;;;17.42;49.25
7337;BME280;54510;42.016;23.098;2022-10-31T04:41:38;-21614.53;;;17.50;48.83
7337;BME280;54510;42.016;23.098;2022-10-31T04:44:04;-21615.91;;;17.55;48.80
7337;BME280;54510;42.016;23.098;2022-10-31T04:46:29;-21609.03;;;17.30;49.50
7337;BME280;54510;42.016;23.098;2022-10-31T04:48:55;-21616.88;;;17.59;48.81
7337;BME280;54510;42.016;23.098;2022-10-31T04:51:20;-21619.22;;;17.67;48.41
7337;BME280;54510;42.016;23.098;2022-10-31T04:53:46;-21619.91;;;17.70;48.04
7337;BME280;54510;42.016;23.098;2022-10-31T04:56:11;-21609.31;;;17.31;49.33
7337;BME280;54510;42.016;23.098;2022-10-31T04:58:36;-21620.88;;;17.73;48.57
7337;BME280;54510;42.016;23.098;2022-10-31T05:01:02;-21621.13;;;17.74;48.59
7337;BME280;54510;42.016;23.098;2022-10-31T05:03:27;-21624.72;;;17.88;48.20
7337;BME280;54510;42.016;23.098;2022-10-31T05:05:52;-21620.72;;;17.73;48.44
7337;BME280;54510;42.016;23.098;2022-10-31T05:08:18;-21624.16;;;17.86;48.10
7337;BME280;54510;42.016;23.098;2022-10-31T05:10:43;-21619.75;;;17.69;48.62
7337;BME280;54510;42.016;23.098;2022-10-31T05:13:09;-21621.00;;;17.74;48.72
7337;BME280;54510;42.016;23.098;2022-10-31T05:15:34;-21611.22;;;17.38;49.04
7337;BME280;54510;42.016;23.098;2022-10-31T05:18:00;-21614.81;;;17.51;49.37
7337;BME280;54510;42.016;23.098;2022-10-31T05:20:28;-21620.19;;;17.71;48.84
7337;BME280;54510;42.016;23.098;2022-10-31T05:22:55;-21621.41;;;17.75;48.62
7337;BME280;54510;42.016;23.098;2022-10-31T05:25:23;-21614.53;;;17.50;49.17
7337;BME280;54510;42.016;23.098;2022-10-31T05:27:50;-21613.69;;;17.47;49.31
7337;BME280;54510;42.016;23.098;2022-10-31T05:30:21;-21618.94;;;17.66;49.19
7337;BME280;54510;42.016;23.098;2022-10-31T05:32:48;-21623.19;;;17.82;49.02
7337;BME280;54510;42.016;23.098;2022-10-31T05:35:18;-21624.44;;;17.87;48.82
7337;BME280;54510;42.016;23.098;2022-10-31T05:37:43;-21626.78;;;17.95;48.60
7337;BME280;54510;42.016;23.098;2022-10-31T05:40:11;-21624.31;;;17.86;48.48
7337;BME280;54510;42.016;23.098;2022-10-31T05:42:41;-21619.91;;;17.70;48.96
7337;BME280;54510;42.016;23.098;2022-10-31T05:45:12;-21624.72;;;17.88;48.80
7337;BME280;54510;42.016;23.098;2022-10-31T05:47:38;-21627.75;;;17.99;48.43
7337;BME280;54510;42.016;23.098;2022-10-31T05:50:04;-21625.00;;;17.89;48.71
7337;BME280;54510;42.016;23.098;2022-10-31T05:52:30;-21629.25;;;18.04;48.11
7337;BME280;54510;42.016;23.098;2022-10-31T05:54:55;-21633.78;;;18.21;47.81
7337;BME280;54510;42.016;23.098;2022-10-31T05:57:21;-21637.50;;;18.35;47.66
7337;BME280;54510;42.016;23.098;2022-10-31T05:59:46;-21628.84;;;18.03;48.29
7337;BME280;54510;42.016;23.098;2022-10-31T06:02:11;-21632.69;;;18.17;47.94
7337;BME280;54510;42.016;23.098;2022-10-31T06:04:37;-21637.63;;;18.35;47.68
7337;BME280;54510;42.016;23.098;2022-10-31T06:07:02;-21631.19;;;18.11;47.53
7337;BME280;54510;42.016;23.098;2022-10-31T06:09:28;-21631.72;;;18.13;48.08
7337;BME280;54510;42.016;23.098;2022-10-31T06:11:53;-21638.75;;;18.39;47.56
7337;BME280;54510;42.016;23.098;2022-10-31T06:14:19;-21638.19;;;18.37;47.61
7337;BME280;54510;42.016;23.098;2022-10-31T06:16:44;-21639.97;;;18.44;47.33
7337;BME280;54510;42.016;23.098;2022-10-31T06:19:09;-21646.44;;;18.68;47.07
7337;BME280;54510;42.016;23.098;2022-10-31T06:21:35;-21648.22;;;18.74;46.61
7337;BME280;54510;42.016;23.098;2022-10-31T06:24:00;-21653.16;;;18.92;46.46
7337;BME280;54510;42.016;23.098;2022-10-31T06:26:25;-21654.94;;;18.99;46.04
7337;BME280;54510;42.016;23.098;2022-10-31T06:28:51;-21656.59;;;19.05;45.73
7337;BME280;54510;42.016;23.098;2022-10-31T06:31:16;-21651.25;;;18.85;46.28
7337;BME280;54510;42.016;23.098;2022-10-31T06:33:42;-21655.09;;;19.00;45.84
7337;BME280;54510;42.016;23.098;2022-10-31T06:36:08;-21658.53;;;19.12;45.52
7337;BME280;54510;42.016;23.098;2022-10-31T06:38:33;-21662.91;;;19.28;45.38
7337;BME280;54510;42.016;23.098;2022-10-31T06:41:05;-21656.88;;;19.06;45.36
7337;BME280;54510;42.016;23.098;2022-10-31T06:43:31;-21655.22;;;19.00;45.90
7337;BME280;54510;42.016;23.098;2022-10-31T06:45:57;-21654.13;;;18.96;46.04
7337;BME280;54510;42.016;23.098;2022-10-31T06:48:23;-21664.84;;;19.36;45.36
7337;BME280;54510;42.016;23.098;2022-10-31T06:50:48;-21650.28;;;18.82;46.31
7337;BME280;54510;42.016;23.098;2022-10-31T06:53:14;-21656.31;;;19.04;45.95
7337;BME280;54510;42.016;23.098;2022-10-31T06:55:39;-21669.09;;;19.51;45.07
7337;BME280;54510;42.016;23.098;2022-10-31T06:58:05;-21677.47;;;19.82;44.37
7337;BME280;54510;42.016;23.098;2022-10-31T07:00:30;-21670.59;;;19.57;44.74
7337;BME280;54510;42.016;23.098;2022-10-31T07:03:01;-21671.97;;;19.62;44.83
7337;BME280;54510;42.016;23.098;2022-10-31T07:05:28;-21672.81;;;19.65;44.73
7337;BME280;54510;42.016;23.098;2022-10-31T07:07:59;-21668.69;;;19.50;45.15
7337;BME280;54510;42.016;23.098;2022-10-31T07:10:26;-21675.53;;;19.75;44.73
7337;BME280;54510;42.016;23.098;2022-10-31T07:12:55;-21667.59;;;19.46;45.24
7337;BME280;54510;42.016;23.098;2022-10-31T07:15:22;-21673.63;;;19.68;45.00
7337;BME280;54510;42.016;23.098;2022-10-31T07:17:47;-21679.66;;;19.90;44.40
7337;BME280;54510;42.016;23.098;2022-10-31T07:20:13;-21682.00;;;19.99;44.35
7337;BME280;54510;42.016;23.098;2022-10-31T07:22:38;-21682.53;;;20.01;44.19
7337;BME280;54510;42.016;23.098;2022-10-31T07:25:04;-21686.66;;;20.16;43.96
7337;BME280;54510;42.016;23.098;2022-10-31T07:27:38;-21682.69;;;20.01;44.23
7337;BME280;54510;42.016;23.098;2022-10-31T07:30:04;-21686.66;;;20.16;44.19
7337;BME280;54510;42.016;23.098;2022-10-31T07:32:40;-21689.81;;;20.28;44.08
7337;BME280;54510;42.016;23.098;2022-10-31T07:35:07;-21689.13;;;20.25;43.92
7337;BME280;54510;42.016;23.098;2022-10-31T07:37:33;-21687.88;;;20.21;44.01
7337;BME280;54510;42.016;23.098;2022-10-31T07:39:59;-21692.00;;;20.36;44.13
7337;BME280;54510;42.016;23.098;2022-10-31T07:42:24;-21687.63;;;20.20;44.16
7337;BME280;54510;42.016;23.098;2022-10-31T07:44:49;-21685.41;;;20.11;44.45
7337;BME280;54510;42.016;23.098;2022-10-31T07:47:15;-21688.56;;;20.23;44.38
7337;BME280;54510;42.016;23.098;2022-10-31T07:49:40;-21689.53;;;20.27;43.95
7337;BME280;54510;42.016;23.098;2022-10-31T07:52:05;-21693.66;;;20.42;43.57
7337;BME280;54510;42.016;23.098;2022-10-31T07:54:31;-21690.22;;;20.29;43.85
7337;BME280;54510;42.016;23.098;2022-10-31T07:56:56;-21696.81;;;20.54;43.55
7337;BME280;54510;42.016;23.098;2022-10-31T07:59:22;-21699.41;;;20.63;43.24
7337;BME280;54510;42.016;23.098;2022-10-31T08:01:47;-21705.44;;;20.85;42.79
7337;BME280;54510;42.016;23.098;2022-10-31T08:04:13;-21710.50;;;21.04;42.57
7337;BME280;54510;42.016;23.098;2022-10-31T08:06:38;-21709.53;;;21.01;42.40
7337;BME280;54510;42.016;23.098;2022-10-31T08:09:03;-21714.75;;;21.20;42.20
7337;BME280;54510;42.016;23.098;2022-10-31T08:11:29;-21721.03;;;21.43;41.89
7337;BME280;54510;42.016;23.098;2022-10-31T08:13:54;-21730.06;;;21.77;41.33
7337;BME280;54510;42.016;23.098;2022-10-31T08:16:19;-21730.91;;;21.80;41.05
7337;BME280;54510;42.016;23.098;2022-10-31T08:18:45;-21733.91;;;21.91;40.77
7337;BME280;54510;42.016;23.098;2022-10-31T08:21:10;-21728.72;;;21.72;41.69
7337;BME280;54510;42.016;23.098;2022-10-31T08:23:36;-21726.78;;;21.64;41.98
7337;BME280;54510;42.016;23.098;2022-10-31T08:26:01;-21734.19;;;21.92;41.79
7337;BME280;54510;42.016;23.098;2022-10-31T08:28:27;-21742.38;;;22.22;40.97
7337;BME280;54510;42.016;23.098;2022-10-31T08:30:52;-21746.09;;;22.36;41.09
7337;BME280;54510;42.016;23.098;2022-10-31T08:33:18;-21753.88;;;22.65;40.58
7337;BME280;54510;42.016;23.098;2022-10-31T08:35:44;-21757.16;;;22.77;40.04
7337;BME280;54510;42.016;23.098;2022-10-31T08:38:11;-21761.13;;;22.92;39.29
7337;BME280;54510;42.016;23.098;2022-10-31T08:40:37;-21762.88;;;22.98;39.27
7337;BME280;54510;42.016;23.098;2022-10-31T08:43:11;-21767.94;;;23.17;39.01
7337;BME280;54510;42.016;23.098;2022-10-31T08:45:37;-21773.41;;;23.37;39.04
7337;BME280;54510;42.016;23.098;2022-10-31T08:48:05;-21776.28;;;23.48;38.59
7337;BME280;54510;42.016;23.098;2022-10-31T08:50:33;-21775.31;;;23.44;38.44
7337;BME280;54510;42.016;23.098;2022-10-31T08:55:37;-21654.28;;;18.97;46.58
7337;BME280;54510;42.016;23.098;2022-10-31T08:58:04;-21644.50;;;18.61;47.30
7337;BME280;54510;42.016;23.098;2022-10-31T09:00:31;-21643.41;;;18.57;48.23
7337;BME280;54510;42.016;23.098;2022-10-31T09:03:03;-21691.88;;;20.35;46.10
7337;BME280;54510;42.016;23.098;2022-10-31T09:05:29;-21737.06;;;22.02;41.83
7337;BME280;54510;42.016;23.098;2022-10-31T09:07:56;-21755.22;;;22.70;40.50
7337;BME280;54510;42.016;23.098;2022-10-31T09:10:22;-21764.66;;;23.05;39.63
7337;BME280;54510;42.016;23.098;2022-10-31T09:12:57;-21769.72;;;23.23;39.47
7337;BME280;54510;42.016;23.098;2022-10-31T09:15:24;-21774.91;;;23.43;39.38
7337;BME280;54510;42.016;23.098;2022-10-31T09:17:49;-21772.44;;;23.34;39.18
7337;BME280;54510;42.016;23.098;2022-10-31T09:20:15;-21775.59;;;23.45;38.94
7337;BME280;54510;42.016;23.098;2022-10-31T09:22:41;-21780.38;;;23.63;38.74
7337;BME280;54510;42.016;23.098;2022-10-31T09:25:08;-21787.44;;;23.89;38.12
7337;BME280;54510;42.016;23.098;2022-10-31T09:27:34;-21790.03;;;23.99;38.13
7337;BME280;54510;42.016;23.098;2022-10-31T09:29:59;-21796.19;;;24.22;37.89
7337;BME280;54510;42.016;23.098;2022-10-31T09:32:25;-21804.09;;;24.51;37.42
7337;BME280;54510;42.016;23.098;2022-10-31T09:34:50;-21804.91;;;24.54;37.57
7337;BME280;54510;42.016;23.098;2022-10-31T09:37:15;-21808.19;;;24.66;37.06
7337;BME280;54510;42.016;23.098;2022-10-31T09:39:41;-21813.50;;;24.86;36.47
7337;BME280;54510;42.016;23.098;2022-10-31T09:45:20;-21818.25;;;25.04;36.25
7337;BME280;54510;42.016;23.098;2022-10-31T09:47:59;-21826.56;;;25.35;36.05
7337;BME280;54510;42.016;23.098;2022-10-31T09:50:47;-21828.88;;;25.43;36.13
7337;BME280;54510;42.016;23.098;2022-10-31T09:55:47;-21830.22;;;25.48;35.91
7337;BME280;54510;42.016;23.098;2022-10-31T09:58:25;-21832.41;;;25.56;35.68
7337;BME280;54510;42.016;23.098;2022-10-31T10:00:53;-21835.94;;;25.70;35.28
7337;BME280;54510;42.016;23.098;2022-10-31T10:03:30;-21838.00;;;25.77;35.41
7337;BME280;54510;42.016;23.098;2022-10-31T10:06:01;-21829.81;;;25.47;36.25
7337;BME280;54510;42.016;23.098;2022-10-31T10:08:31;-21831.88;;;25.54;35.74
7337;BME280;54510;42.016;23.098;2022-10-31T10:26:37;-21858.38;;;26.53;34.18
7337;BME280;54510;42.016;23.098;2022-10-31T10:31:43;-21867.47;;;26.87;33.64
7337;BME280;54510;42.016;23.098;2022-10-31T10:34:27;-21868.28;;;26.90;33.04
7337;BME280;54510;42.016;23.098;2022-10-31T10:37:02;-21871.97;;;27.04;33.30
7337;BME280;54510;42.016;23.098;2022-10-31T10:42:00;-21878.22;;;27.27;32.87
7337;BME280;54510;42.016;23.098;2022-10-31T10:44:46;-21883.91;;;27.48;32.71
7337;BME280;54510;42.016;23.098;2022-10-31T10:47:43;-21887.03;;;27.60;33.23
7337;BME280;54510;42.016;23.098;2022-10-31T10:50:18;-21893.25;;;27.83;32.01
7337;BME280;54510;42.016;23.098;2022-10-31T10:52:53;-21888.94;;;27.67;32.14
7337;BME280;54510;42.016;23.098;2022-10-31T10:55:48;-21894.06;;;27.86;32.37
7337;BME280;54510;42.016;23.098;2022-10-31T10:58:17;-21894.06;;;27.86;31.55
7337;BME280;54510;42.016;23.098;2022-10-31T11:00:45;-21888.09;;;27.64;32.93
7337;BME280;54510;42.016;23.098;2022-10-31T11:03:13;-21891.38;;;27.76;32.59
7337;BME280;54510;42.016;23.098;2022-10-31T11:08:35;-21899.38;;;28.06;32.08
7337;BME280;54510;42.016;23.098;2022-10-31T11:11:03;-21904.66;;;28.26;31.54
7337;BME280;54510;42.016;23.098;2022-10-31T11:13:31;-21908.97;;;28.42;31.86
7337;BME280;54510;42.016;23.098;2022-10-31T11:16:07;-21914.00;;;28.61;30.49
7337;BME280;54510;42.016;23.098;2022-10-31T11:18:53;-21914.53;;;28.63;30.54
7337;BME280;54510;42.016;23.098;2022-10-31T11:21:25;-21919.28;;;28.81;30.63
7337;BME280;54510;42.016;23.098;2022-10-31T11:26:29;-21921.16;;;28.88;30.41
7337;BME280;54510;42.016;23.098;2022-10-31T11:28:58;-21926.03;;;29.06;30.08
7337;BME280;54510;42.016;23.098;2022-10-31T11:31:25;-21927.41;;;29.11;30.48
7337;BME280;54510;42.016;23.098;2022-10-31T11:34:03;-21929.03;;;29.17;29.58
7337;BME280;54510;42.016;23.098;2022-10-31T11:36:33;-21934.31;;;29.37;30.04
7337;BME280;54510;42.016;23.098;2022-10-31T11:39:02;-21929.84;;;29.20;29.74
7337;BME280;54510;42.016;23.098;2022-10-31T11:41:32;-21931.47;;;29.26;29.61
7337;BME280;54510;42.016;23.098;2022-10-31T11:44:01;-21927.94;;;29.13;30.41
7337;BME280;54510;42.016;23.098;2022-10-31T11:46:40;-21929.69;;;29.20;29.14
7337;BME280;54510;42.016;23.098;2022-10-31T11:49:15;-21934.84;;;29.39;29.17
7337;BME280;54510;42.016;23.098;2022-10-31T11:51:41;-21935.25;;;29.40;28.93
7337;BME280;54510;42.016;23.098;2022-10-31T11:54:19;-21929.44;;;29.19;29.24
7337;BME280;54510;42.016;23.098;2022-10-31T11:56:46;-21931.31;;;29.26;28.80
7337;BME280;54510;42.016;23.098;2022-10-31T11:59:22;-21939.56;;;29.57;28.54
7337;BME280;54510;42.016;23.098;2022-10-31T12:01:51;-21944.72;;;29.76;28.11
7337;BME280;54510;42.016;23.098;2022-10-31T12:04:17;-21950.13;;;29.96;28.14
7337;BME280;54510;42.016;23.098;2022-10-31T12:06:44;-21946.72;;;29.83;28.02
7337;BME280;54510;42.016;23.098;2022-10-31T12:09:24;-21933.22;;;29.33;27.82
7337;BME280;54510;42.016;23.098;2022-10-31T12:17:19;-21948.34;;;29.90;27.65
7337;BME280;54510;42.016;23.098;2022-10-31T12:33:37;-21969.28;;;30.68;27.08
7337;BME280;54510;42.016;23.098;2022-10-31T12:39:24;-21969.28;;;30.68;25.71
7337;BME280;54510;42.016;23.098;2022-10-31T12:42:16;-21968.09;;;30.64;25.28
7337;BME280;54510;42.016;23.098;2022-10-31T12:45:00;-21964.97;;;30.52;25.59
7337;BME280;54510;42.016;23.098;2022-10-31T12:50:51;-21977.66;;;30.99;25.10
7337;BME280;54510;42.016;23.098;2022-10-31T12:58:45;-21989.66;;;31.45;26.14
7337;BME280;54510;42.016;23.098;2022-10-31T13:01:40;-21969.56;;;30.69;25.33
7337;BME280;54510;42.016;23.098;2022-10-31T13:04:16;-21976.19;;;30.94;25.00
7337;BME280;54510;42.016;23.098;2022-10-31T13:07:00;-21975.09;;;30.90;25.23
7337;BME280;54510;42.016;23.098;2022-10-31T13:09:39;-21976.84;;;30.96;24.98
7337;BME280;54510;42.016;23.098;2022-10-31T13:12:14;-21984.13;;;31.24;25.59
7337;BME280;54510;42.016;23.098;2022-10-31T13:14:54;-21995.72;;;31.67;24.38
7337;BME280;54510;42.016;23.098;2022-10-31T13:17:41;-21990.19;;;31.47;24.53
7337;BME280;54510;42.016;23.098;2022-10-31T13:20:33;-21992.50;;;31.55;24.20
7337;BME280;54510;42.016;23.098;2022-10-31T13:23:51;-21992.75;;;31.56;24.59
7337;BME280;54510;42.016;23.098;2022-10-31T13:25:54;-21991.16;;;31.50;24.21
7337;BME280;54510;42.016;23.098;2022-10-31T13:28:33;-21995.88;;;31.68;24.08
7337;BME280;54510;42.016;23.098;2022-10-31T13:31:01;-21984.69;;;31.26;23.98
7337;BME280;54510;42.016;23.098;2022-10-31T13:33:34;-21993.44;;;31.59;24.14
7337;BME280;54510;42.016;23.098;2022-10-31T13:38:56;-22008.66;;;32.16;24.25
7337;BME280;54510;42.016;23.098;2022-10-31T13:41:34;-21993.84;;;31.60;24.40
7337;BME280;54510;42.016;23.098;2022-10-31T13:46:38;-21996.53;;;31.70;24.41
7337;BME280;54510;42.016;23.098;2022-10-31T13:51:47;-21982.78;;;31.19;24.38
7337;BME280;54510;42.016;23.098;2022-10-31T13:54:34;-21984.41;;;31.25;24.51
7337;BME280;54510;42.016;23.098;2022-10-31T13:57:00;-21983.06;;;31.20;24.39
7337;BME280;54510;42.016;23.098;2022-10-31T13:59:27;-21978.59;;;31.03;24.58
7337;BME280;54510;42.016;23.098;2022-10-31T14:01:56;-21992.63;;;31.56;24.26
7337;BME280;54510;42.016;23.098;2022-10-31T14:04:26;-21987.78;;;31.37;24.35
7337;BME280;54510;42.016;23.098;2022-10-31T14:12:33;-21978.59;;;31.03;24.89
7337;BME280;54510;42.016;23.098;2022-10-31T14:15:21;-21964.44;;;30.50;26.13
7337;BME280;54510;42.016;23.098;2022-10-31T14:22:41;-21946.34;;;29.82;25.67
7337;BME280;54510;42.016;23.098;2022-10-31T14:27:51;-21957.28;;;30.23;25.39
7337;BME280;54510;42.016;23.098;2022-10-31T14:30:20;-21965.53;;;30.54;25.46
7337;BME280;54510;42.016;23.098;2022-10-31T14:32:59;-21973.63;;;30.84;25.02
7337;BME280;54510;42.016;23.098;2022-10-31T14:35:37;-21963.34;;;30.46;25.37
7337;BME280;54510;42.016;23.098;2022-10-31T14:51:39;-21924.81;;;29.01;26.53
7337;BME280;54510;42.016;23.098;2022-10-31T14:54:10;-21920.38;;;28.85;27.47
7337;BME280;54510;42.016;23.098;2022-10-31T14:56:47;-21923.88;;;28.98;27.36
7337;BME280;54510;42.016;23.098;2022-10-31T14:59:16;-21925.22;;;29.03;27.79
7337;BME280;54510;42.016;23.098;2022-10-31T15:02:13;-21920.63;;;28.86;27.97
7337;BME280;54510;42.016;23.098;2022-10-31T15:04:38;-21913.84;;;28.60;27.33
7337;BME280;54510;42.016;23.098;2022-10-31T15:07:23;-21913.47;;;28.59;27.80
7337;BME280;54510;42.016;23.098;2022-10-31T15:10:05;-21915.47;;;28.66;28.08
7337;BME280;54510;42.016;23.098;2022-10-31T15:12:34;-21912.38;;;28.55;27.94
7337;BME280;54510;42.016;23.098;2022-10-31T15:15:35;-21906.41;;;28.33;27.98
7337;BME280;54510;42.016;23.098;2022-10-31T15:18:04;-21896.25;;;27.95;28.52